Time;durP1;ratioP1;P1;durP2;ratioP2;P2;SDS_P1;SDS_P2;PMS_P1;PMS_P2;Temp;Humidity;BMP_temperature;BMP_pressure;BME280_temperature;BME280_humidity;BME280_pressure;Samples;Min_cycle;Max_cycle;Signal;HPM_P1;HPM_P2
2023/01/30 00:02:22;;;;;;;62.65;7.18;;;;;;;;;;6145836;23;20483;-65
2023/01/30 00:04:49;;;;;;;70.47;7.07;;;;;;;;;;6146201;23;20445;-65
2023/01/30 00:07:22;;;;;;;63.33;7.03;;;;;;;;;;6146601;23;20029;-65
2023/01/30 00:09:49;;;;;;;56.42;7.18;;;;;;;;;;6144692;23;20052;-66
2023/01/30 00:12:23;;;;;;;69.07;7.60;;;;;;;;;;6146944;23;20093;-65
2023/01/30 00:14:50;;;;;;;60.38;6.32;;;;;;;;;;6147918;23;20079;-66
2023/01/30 00:17:18;;;;;;;61.95;7.20;;;;;;;;;;6148259;23;20024;-65
2023/01/30 00:19:51;;;;;;;69.22;7.07;;;;;;;;;;6148435;23;20137;-65
2023/01/30 00:22:18;;;;;;;38.85;5.18;;;;;;;;;;6147982;23;20027;-65
2023/01/30 00:24:52;;;;;;;64.95;7.45;;;;;;;;;;6146788;23;20549;-66
2023/01/30 00:27:20;;;;;;;;;;;;;;;;;;6146517;23;20060;-66
2023/01/30 00:29:47;;;;;;;52.15;6.63;;;;;;;;;;6146254;23;19979;-65
2023/01/30 00:32:35;;;;;;;59.10;6.80;;;;;;;;;;6144761;23;20025;-66
2023/01/30 00:35:03;;;;;;;63.35;6.55;;;;;;;;;;6148496;23;20336;-65
2023/01/30 00:37:36;;;;;;;64.63;7.30;;;;;;;;;;6148094;23;20027;-66
2023/01/30 00:40:04;;;;;;;56.25;7.07;;;;;;;;;;6146250;23;20529;-66
2023/01/30 00:48:09;;;;;;;49.97;7.68;;;;;;;;;;6145886;23;20537;-68
2023/01/30 00:50:43;;;;;;;55.55;6.63;;;;;;;;;;6146155;23;20031;-69
2023/01/30 00:53:11;;;;;;;46.28;5.85;;;;;;;;;;6147654;23;20033;-65
2023/01/30 00:55:38;;;;;;;;;;;;;;;;;;6148246;23;20483;-66
2023/01/30 00:58:12;;;;;;;38.78;5.72;;;;;;;;;;6146938;23;19924;-67
2023/01/30 01:00:39;;;;;;;47.65;6.38;;;;;;;;;;6146456;23;20129;-68
2023/01/30 01:03:07;;;;;;;45.78;5.68;;;;;;;;;;6146890;23;20049;-68
2023/01/30 01:05:47;;;;;;;34.28;4.35;;;;;;;;;;6146748;23;20033;-69
2023/01/30 01:08:21;;;;;;;30.73;3.85;;;;;;;;;;6146142;23;20032;-68
2023/01/30 01:10:55;;;;;;;34.20;4.57;;;;;;;;;;6147429;23;20027;-68
2023/01/30 01:13:22;;;;;;;43.22;5.07;;;;;;;;;;6146959;23;20104;-68
2023/01/30 01:15:56;;;;;;;42.33;5.30;;;;;;;;;;6148109;23;20100;-68
2023/01/30 01:18:24;;;;;;;36.17;6.05;;;;;;;;;;6145531;23;20035;-68
2023/01/30 01:20:51;;;;;;;40.65;4.93;;;;;;;;;;6147128;23;20113;-68
2023/01/30 01:23:25;;;;;;;48.28;5.00;;;;;;;;;;6146248;23;20279;-68
2023/01/30 01:25:52;;;;;;;40.50;5.03;;;;;;;;;;6146825;23;20842;-68
2023/01/30 01:28:26;;;;;;;46.78;6.55;;;;;;;;;;6146733;23;20108;-68
2023/01/30 01:31:00;;;;;;;32.92;4.60;;;;;;;;;;6145874;23;20025;-68
2023/01/30 01:33:34;;;;;;;39.00;4.93;;;;;;;;;;6145833;23;20029;-68
2023/01/30 01:36:01;;;;;;;42.42;5.13;;;;;;;;;;6147956;23;20050;-68
2023/01/30 01:38:30;;;;;;;39.10;5.20;;;;;;;;;;6146913;23;20057;-67
2023/01/30 01:41:08;;;;;;;38.30;4.63;;;;;;;;;;6121880;23;20021;-68
2023/01/30 01:43:37;;;;;;;35.63;4.75;;;;;;;;;;6147594;23;20025;-68
2023/01/30 01:46:17;;;;;;;41.75;4.90;;;;;;;;;;6148201;23;20059;-68
2023/01/30 01:48:47;;;;;;;50.17;7.28;;;;;;;;;;6146075;23;20104;-68
2023/01/30 01:51:26;;;;;;;40.95;4.43;;;;;;;;;;6145905;23;20482;-69
2023/01/30 01:53:56;;;;;;;31.58;4.28;;;;;;;;;;6145925;23;20048;-68
2023/01/30 01:56:31;;;;;;;42.30;6.13;;;;;;;;;;6146751;23;20417;-68
2023/01/30 01:59:01;;;;;;;49.30;5.68;;;;;;;;;;6145761;23;20373;-68
2023/01/30 02:01:29;;;;;;;32.83;4.82;;;;;;;;;;6145728;23;20021;-68
2023/01/30 02:04:04;;;;;;;29.70;5.10;;;;;;;;;;6145950;23;20482;-68
2023/01/30 02:06:38;;;;;;;33.10;4.68;;;;;;;;;;6146652;23;20025;-68
2023/01/30 02:09:12;;;;;;;31.48;5.47;;;;;;;;;;6145419;23;20026;-68
2023/01/30 02:11:55;;;;;;;32.67;5.22;;;;;;;;;;6145596;23;20105;-68
2023/01/30 02:14:31;;;;;;;29.17;3.90;;;;;;;;;;6145188;23;20030;-68
2023/01/30 02:16:58;;;;;;;26.30;4.22;;;;;;;;;;6147417;23;20100;-68
2023/01/30 02:19:51;;;;;;;33.40;3.67;;;;;;;;;;6146994;23;20028;-67
2023/01/30 02:22:31;;;;;;;34.40;3.75;;;;;;;;;;6147700;23;20029;-68
2023/01/30 02:25:17;;;;;;;24.70;3.20;;;;;;;;;;6148572;23;20025;-68
2023/01/30 02:28:09;;;;;;;41.80;6.63;;;;;;;;;;6148965;23;20057;-67
2023/01/30 02:31:01;;;;;;;31.08;3.47;;;;;;;;;;6148021;23;20021;-68
2023/01/30 02:33:56;;;;;;;27.70;4.13;;;;;;;;;;6147660;23;20117;-68
2023/01/30 02:36:33;;;;;;;40.22;6.18;;;;;;;;;;6147423;23;20521;-68
2023/01/30 02:39:46;;;;;;;33.03;4.85;;;;;;;;;;6147355;23;20026;-68
2023/01/30 02:42:35;;;;;;;37.25;4.72;;;;;;;;;;6030040;23;20045;-67
2023/01/30 02:45:15;;;;;;;43.75;5.13;;;;;;;;;;6028645;23;20062;-68
2023/01/30 02:47:54;;;;;;;35.70;5.28;;;;;;;;;;6116330;23;20538;-68
2023/01/30 02:50:30;;;;;;;35.78;5.15;;;;;;;;;;6148843;23;20068;-68
2023/01/30 02:52:57;;;;;;;43.03;5.68;;;;;;;;;;6148390;23;20402;-68
2023/01/30 02:55:31;;;;;;;26.50;4.68;;;;;;;;;;6147864;23;20526;-68
2023/01/30 02:57:59;;;;;;;58.35;5.00;;;;;;;;;;6123478;23;20355;-68
2023/01/30 03:01:02;;;;;;;45.30;5.10;;;;;;;;;;6148112;23;20057;-68
2023/01/30 03:03:37;;;;;;;37.60;4.75;;;;;;;;;;6147622;23;20036;-68
2023/01/30 03:06:30;;;;;;;39.22;5.30;;;;;;;;;;6122258;23;20063;-68
2023/01/30 03:09:07;;;;;;;31.85;4.13;;;;;;;;;;6148590;23;20100;-68
2023/01/30 03:11:44;;;;;;;32.55;4.10;;;;;;;;;;6146816;23;20106;-69
2023/01/30 03:14:15;;;;;;;36.55;3.72;;;;;;;;;;6149106;23;20021;-68
2023/01/30 03:16:50;;;;;;;29.83;4.68;;;;;;;;;;6147099;23;20028;-68
2023/01/30 03:19:18;;;;;;;33.50;4.90;;;;;;;;;;6146559;23;20028;-68
2023/01/30 03:21:46;;;;;;;31.73;4.85;;;;;;;;;;6147267;23;20404;-68
2023/01/30 03:24:19;;;;;;;25.25;3.80;;;;;;;;;;6148271;23;20030;-68
2023/01/30 03:26:49;;;;;;;24.60;3.78;;;;;;;;;;6146397;23;20022;-68
2023/01/30 03:29:22;;;;;;;25.40;3.08;;;;;;;;;;6147952;23;20018;-68
2023/01/30 03:31:50;;;;;;;24.20;3.80;;;;;;;;;;6146932;23;20101;-68
2023/01/30 03:34:23;;;;;;;28.15;4.43;;;;;;;;;;6147871;23;20089;-68
2023/01/30 03:36:51;;;;;;;20.02;3.72;;;;;;;;;;6148041;23;20060;-67
2023/01/30 03:39:18;;;;;;;30.80;4.43;;;;;;;;;;6146591;23;20017;-67
2023/01/30 03:41:52;;;;;;;21.52;2.83;;;;;;;;;;6148683;23;20076;-68
2023/01/30 03:44:20;;;;;;;27.77;4.65;;;;;;;;;;6148570;23;20028;-68
2023/01/30 03:46:47;;;;;;;20.75;4.40;;;;;;;;;;6147896;23;20104;-68
2023/01/30 03:49:21;;;;;;;15.27;2.88;;;;;;;;;;6147067;23;20021;-68
2023/01/30 03:51:48;;;;;;;23.38;3.20;;;;;;;;;;6148114;23;20076;-69
2023/01/30 03:54:21;;;;;;;23.20;3.50;;;;;;;;;;6147421;23;20034;-68
2023/01/30 03:56:48;;;;;;;31.05;4.25;;;;;;;;;;6147680;23;20021;-68
2023/01/30 03:59:15;;;;;;;29.98;4.38;;;;;;;;;;6147490;23;20612;-68
2023/01/30 04:01:49;;;;;;;25.98;3.63;;;;;;;;;;6147106;23;20045;-68
2023/01/30 04:04:17;;;;;;;33.20;4.65;;;;;;;;;;6147994;23;20478;-68
2023/01/30 04:06:44;;;;;;;32.17;3.50;;;;;;;;;;6147258;23;20510;-68
2023/01/30 04:09:18;;;;;;;34.13;4.55;;;;;;;;;;6145096;23;20025;-68
2023/01/30 04:11:45;;;;;;;40.63;5.03;;;;;;;;;;6147590;23;20092;-68
2023/01/30 04:14:12;;;;;;;40.20;4.80;;;;;;;;;;6147903;23;20131;-67
2023/01/30 04:16:45;;;;;;;28.77;4.53;;;;;;;;;;6147705;23;20037;-68
2023/01/30 04:19:13;;;;;;;35.50;4.95;;;;;;;;;;6147864;23;20054;-68
2023/01/30 04:21:46;;;;;;;36.63;4.65;;;;;;;;;;6147758;23;20470;-68
2023/01/30 04:24:14;;;;;;;27.05;4.05;;;;;;;;;;6145605;23;20402;-67
2023/01/30 04:26:47;;;;;;;34.75;5.03;;;;;;;;;;6148365;23;20097;-68
2023/01/30 04:29:15;;;;;;;37.25;4.22;;;;;;;;;;6148902;23;20036;-68
2023/01/30 04:31:42;;;;;;;33.67;4.10;;;;;;;;;;6146972;23;20470;-68
2023/01/30 04:34:15;;;;;;;32.72;3.75;;;;;;;;;;6147035;23;20026;-68
2023/01/30 04:36:42;;;;;;;43.67;4.72;;;;;;;;;;6146573;23;20100;-68
2023/01/30 04:39:16;;;;;;;33.92;4.45;;;;;;;;;;6147930;23;20136;-68
2023/01/30 04:41:46;;;;;;;48.05;4.68;;;;;;;;;;6147000;23;20028;-68
2023/01/30 04:44:13;;;;;;;27.85;4.43;;;;;;;;;;6146244;23;20025;-68
2023/01/30 04:46:47;;;;;;;40.17;3.97;;;;;;;;;;6148135;23;20472;-68
2023/01/30 04:49:15;;;;;;;32.78;4.45;;;;;;;;;;6146953;23;20045;-68
2023/01/30 04:51:48;;;;;;;36.22;5.30;;;;;;;;;;6147276;23;20100;-68
2023/01/30 04:54:16;;;;;;;27.42;4.20;;;;;;;;;;6147316;23;20104;-67
2023/01/30 04:56:43;;;;;;;42.95;5.10;;;;;;;;;;6148084;23;20132;-67
2023/01/30 04:59:16;;;;;;;34.13;5.22;;;;;;;;;;6147696;23;20060;-67
2023/01/30 05:01:44;;;;;;;30.90;4.85;;;;;;;;;;6146393;23;20100;-68
2023/01/30 05:04:17;;;;;;;26.88;3.88;;;;;;;;;;6147913;23;20022;-67
2023/01/30 05:06:51;;;;;;;30.65;5.28;;;;;;;;;;6147076;23;20049;-67
2023/01/30 05:09:26;;;;;;;38.10;4.93;;;;;;;;;;6148475;23;20093;-67
2023/01/30 05:11:53;;;;;;;30.88;3.42;;;;;;;;;;6146558;23;20121;-67
2023/01/30 05:14:20;;;;;;;40.92;5.50;;;;;;;;;;6148643;23;20049;-67
2023/01/30 05:16:54;;;;;;;18.33;2.85;;;;;;;;;;6147983;23;20056;-67
2023/01/30 05:19:21;;;;;;;29.40;3.42;;;;;;;;;;6145891;23;20036;-67
2023/01/30 05:21:48;;;;;;;30.23;3.58;;;;;;;;;;6145326;23;20577;-67
2023/01/30 05:24:22;;;;;;;25.38;3.72;;;;;;;;;;6144054;23;20494;-67
2023/01/30 05:26:49;;;;;;;26.42;3.78;;;;;;;;;;6147976;23;20092;-68
2023/01/30 05:29:23;;;;;;;29.00;4.13;;;;;;;;;;6146657;23;20049;-67
2023/01/30 05:31:51;;;;;;;19.52;2.97;;;;;;;;;;6146527;23;20471;-67
2023/01/30 05:34:18;;;;;;;30.42;4.25;;;;;;;;;;6144862;23;20024;-67
2023/01/30 05:36:51;;;;;;;31.95;3.85;;;;;;;;;;6145652;23;20112;-67
2023/01/30 05:39:19;;;;;;;30.13;3.83;;;;;;;;;;6144991;23;20101;-68
2023/01/30 05:41:52;;;;;;;23.38;3.38;;;;;;;;;;6145556;23;20025;-67
2023/01/30 05:44:20;;;;;;;31.50;4.97;;;;;;;;;;6145274;23;20081;-67
2023/01/30 05:46:47;;;;;;;23.13;3.55;;;;;;;;;;6147825;23;20120;-68
2023/01/30 05:49:20;;;;;;;20.92;3.03;;;;;;;;;;6146441;23;20017;-67
2023/01/30 05:51:48;;;;;;;26.88;4.40;;;;;;;;;;6145449;23;20785;-67
2023/01/30 05:54:21;;;;;;;26.20;3.45;;;;;;;;;;6143466;23;20064;-68
2023/01/30 05:56:49;;;;;;;28.45;3.72;;;;;;;;;;6149024;23;20467;-68
2023/01/30 05:59:19;;;;;;;30.10;3.83;;;;;;;;;;6148712;23;20051;-67
2023/01/30 06:01:53;;;;;;;28.88;3.88;;;;;;;;;;6149938;23;20018;-67
2023/01/30 06:04:21;;;;;;;35.35;4.85;;;;;;;;;;6149259;23;20072;-67
2023/01/30 06:07:08;;;;;;;28.15;3.60;;;;;;;;;;6147320;23;20108;-67
2023/01/30 06:09:42;;;;;;;23.93;5.73;;;;;;;;;;6149061;23;20061;-68
2023/01/30 06:12:17;;;;;;;29.25;3.95;;;;;;;;;;6149962;23;20355;-67
2023/01/30 06:14:44;;;;;;;27.50;3.90;;;;;;;;;;6149654;23;20025;-67
2023/01/30 06:17:11;;;;;;;18.48;3.25;;;;;;;;;;6148611;23;20434;-67
2023/01/30 06:19:45;;;;;;;15.35;2.92;;;;;;;;;;6149934;23;20102;-68
2023/01/30 06:22:12;;;;;;;22.58;4.15;;;;;;;;;;6148601;23;20029;-67
2023/01/30 06:24:39;;;;;;;23.92;4.03;;;;;;;;;;6148407;23;20215;-67
2023/01/30 06:27:13;;;;;;;29.35;4.65;;;;;;;;;;6148280;23;20022;-67
2023/01/30 06:29:40;;;;;;;31.90;3.85;;;;;;;;;;6148641;23;20030;-68
2023/01/30 06:32:14;;;;;;;29.83;3.50;;;;;;;;;;6148857;23;20403;-67
2023/01/30 06:34:41;;;;;;;28.02;4.43;;;;;;;;;;6149278;23;20262;-68
2023/01/30 06:37:08;;;;;;;23.45;4.13;;;;;;;;;;6148962;23;20101;-67
2023/01/30 06:39:41;;;;;;;30.70;5.05;;;;;;;;;;6148315;23;20405;-68
2023/01/30 06:42:08;;;;;;;33.55;3.67;;;;;;;;;;6150085;23;20044;-68
2023/01/30 06:44:43;;;;;;;21.50;3.75;;;;;;;;;;6148122;23;20104;-68
2023/01/30 06:47:10;;;;;;;26.17;3.50;;;;;;;;;;6148792;23;20049;-67
2023/01/30 06:49:37;;;;;;;24.58;3.30;;;;;;;;;;6148458;23;20462;-68
2023/01/30 06:52:11;;;;;;;29.30;3.33;;;;;;;;;;6149130;23;20056;-67
2023/01/30 06:54:38;;;;;;;23.92;3.03;;;;;;;;;;6147824;23;20104;-67
2023/01/30 06:57:05;;;;;;;25.25;3.50;;;;;;;;;;6149574;23;20029;-68
2023/01/30 06:59:39;;;;;;;27.83;3.45;;;;;;;;;;6149090;23;20025;-67
2023/01/30 07:02:06;;;;;;;19.30;3.17;;;;;;;;;;6149276;23;20032;-67
2023/01/30 07:04:40;;;;;;;29.30;4.13;;;;;;;;;;6147813;23;20084;-67
2023/01/30 07:07:07;;;;;;;;;;;;;;;;;;6148451;23;20021;-68
2023/01/30 07:09:41;;;;;;;27.75;3.35;;;;;;;;;;6147823;23;20006;-67
2023/01/30 07:12:32;;;;;;;21.20;3.28;;;;;;;;;;6148105;23;20108;-67
2023/01/30 07:14:59;;;;;;;15.88;3.00;;;;;;;;;;6122958;23;20033;-67
2023/01/30 07:17:34;;;;;;;28.67;3.47;;;;;;;;;;6147078;23;20053;-67
2023/01/30 07:20:01;;;;;;;33.55;5.05;;;;;;;;;;6148331;23;20017;-68
2023/01/30 07:22:42;;;;;;;22.58;3.13;;;;;;;;;;6149901;23;20056;-68
2023/01/30 07:25:24;;;;;;;24.75;3.40;;;;;;;;;;6147445;23;20126;-68
2023/01/30 07:27:58;;;;;;;29.17;3.03;;;;;;;;;;6147912;23;20109;-67
2023/01/30 07:30:34;;;;;;;23.38;3.75;;;;;;;;;;6148669;23;20542;-67
2023/01/30 07:33:03;;;;;;;19.80;3.75;;;;;;;;;;6149712;23;20681;-68
2023/01/30 07:35:37;;;;;;;22.98;3.88;;;;;;;;;;6147291;23;20088;-67
2023/01/30 07:38:04;;;;;;;17.23;3.15;;;;;;;;;;6149147;23;20483;-67
2023/01/30 07:40:32;;;;;;;21.20;3.28;;;;;;;;;;6148806;23;20098;-67
2023/01/30 07:43:07;;;;;;;23.90;3.13;;;;;;;;;;6148195;23;20104;-68
2023/01/30 07:45:36;;;;;;;21.45;3.83;;;;;;;;;;6121658;23;20021;-68
2023/01/30 07:48:13;;;;;;;21.98;3.28;;;;;;;;;;6149428;23;20097;-68
2023/01/30 07:50:40;;;;;;;18.17;2.97;;;;;;;;;;6147920;23;20041;-67
2023/01/30 07:53:16;;;;;;;17.42;2.90;;;;;;;;;;6148558;23;20021;-67
2023/01/30 07:55:43;;;;;;;27.23;3.67;;;;;;;;;;6147363;23;20057;-68
2023/01/30 07:58:13;;;;;;;21.75;3.45;;;;;;;;;;6147504;23;20026;-67
2023/01/30 08:00:46;;;;;;;20.92;3.55;;;;;;;;;;6147268;23;20467;-67
2023/01/30 08:03:15;;;;;;;35.58;5.20;;;;;;;;;;6149000;23;20359;-67
2023/01/30 08:05:55;;;;;;;21.58;3.15;;;;;;;;;;6147752;23;20458;-67
2023/01/30 08:08:29;;;;;;;26.42;3.35;;;;;;;;;;6148421;23;20032;-68
2023/01/30 08:11:02;;;;;;;25.58;3.45;;;;;;;;;;6148416;23;20032;-67
2023/01/30 08:13:36;;;;;;;28.00;3.45;;;;;;;;;;6148089;23;20096;-68
2023/01/30 08:16:05;;;;;;;17.77;3.55;;;;;;;;;;6148872;23;20040;-68
2023/01/30 08:18:32;;;;;;;16.90;3.33;;;;;;;;;;6147354;23;20025;-68
2023/01/30 08:21:07;;;;;;;23.02;2.85;;;;;;;;;;6148386;23;20022;-68
2023/01/30 08:23:34;;;;;;;16.48;2.92;;;;;;;;;;6148155;23;20021;-67
2023/01/30 08:26:07;;;;;;;24.15;3.78;;;;;;;;;;6147748;23;20044;-68
2023/01/30 08:28:35;;;;;;;16.17;2.53;;;;;;;;;;6148187;23;20021;-69
2023/01/30 08:31:02;;;;;;;23.10;2.92;;;;;;;;;;6120825;23;20064;-68
2023/01/30 08:33:36;;;;;;;19.90;3.25;;;;;;;;;;6147492;23;20057;-68
2023/01/30 08:36:03;;;;;;;17.17;2.58;;;;;;;;;;6148831;23;20025;-68
2023/01/30 08:38:36;;;;;;;20.75;3.15;;;;;;;;;;6147914;23;20022;-69
2023/01/30 08:41:04;;;;;;;17.05;2.92;;;;;;;;;;6147102;23;20064;-68
2023/01/30 08:43:31;;;;;;;20.02;2.60;;;;;;;;;;6147926;23;20101;-68
2023/01/30 08:46:06;;;;;;;19.95;3.63;;;;;;;;;;6147353;23;20419;-68
2023/01/30 08:48:33;;;;;;;18.73;3.10;;;;;;;;;;6148229;23;20029;-68
2023/01/30 08:51:16;;;;;;;26.38;3.63;;;;;;;;;;6146988;23;20024;-67
2023/01/30 08:53:43;;;;;;;22.10;3.72;;;;;;;;;;6146758;23;20467;-68
2023/01/30 08:56:17;;;;;;;30.13;3.90;;;;;;;;;;6147116;23;20101;-68
2023/01/30 08:58:45;;;;;;;21.90;3.28;;;;;;;;;;6147375;23;20068;-68
2023/01/30 09:01:12;;;;;;;16.00;2.80;;;;;;;;;;6146710;23;20025;-67
2023/01/30 09:03:47;;;;;;;20.27;3.70;;;;;;;;;;6147309;23;20025;-68
2023/01/30 09:06:14;;;;;;;;;;;;;;;;;;6147660;23;20025;-68
2023/01/30 09:08:55;;;;;;;14.00;2.30;;;;;;;;;;6147483;23;19920;-68
2023/01/30 09:11:22;;;;;;;22.88;3.35;;;;;;;;;;6147949;23;20096;-68
2023/01/30 09:13:56;;;;;;;24.02;3.85;;;;;;;;;;6147457;23;20065;-68
2023/01/30 09:16:24;;;;;;;19.65;2.55;;;;;;;;;;6147705;23;20048;-68
2023/01/30 09:18:51;;;;;;;15.05;2.92;;;;;;;;;;6145593;23;20091;-67
2023/01/30 09:21:24;;;;;;;14.80;2.60;;;;;;;;;;6148834;23;20100;-68
2023/01/30 09:23:52;;;;;;;16.75;2.85;;;;;;;;;;6147677;23;20121;-67
2023/01/30 09:26:26;;;;;;;22.65;3.78;;;;;;;;;;6145744;23;20026;-68
2023/01/30 09:28:53;;;;;;;16.13;2.70;;;;;;;;;;6146916;23;20510;-68
2023/01/30 09:31:20;;;;;;;17.55;2.85;;;;;;;;;;6146658;23;20025;-68
2023/01/30 09:33:54;;;;;;;17.88;2.67;;;;;;;;;;6146893;23;20072;-67
2023/01/30 09:36:21;;;;;;;16.63;3.03;;;;;;;;;;6145762;23;20378;-67
2023/01/30 09:38:54;;;;;;;12.27;2.63;;;;;;;;;;6146492;23;20519;-67
2023/01/30 09:41:22;;;;;;;16.10;2.38;;;;;;;;;;6147266;23;20025;-68
2023/01/30 09:43:49;;;;;;;14.27;2.50;;;;;;;;;;6146742;23;20021;-68
2023/01/30 09:46:29;;;;;;;17.23;2.08;;;;;;;;;;6145728;23;20594;-69
2023/01/30 09:49:00;;;;;;;16.65;2.20;;;;;;;;;;6147450;23;20025;-68
2023/01/30 09:51:39;;;;;;;11.25;2.53;;;;;;;;;;6148261;23;20021;-68
2023/01/30 09:54:21;;;;;;;13.02;2.00;;;;;;;;;;6149305;23;20118;-63
2023/01/30 09:56:57;;;;;;;18.53;2.10;;;;;;;;;;6122838;23;20747;-63
2023/01/30 09:59:34;;;;;;;14.60;2.13;;;;;;;;;;6147041;23;20100;-63
2023/01/30 10:02:26;;;;;;;14.73;2.60;;;;;;;;;;6148211;23;20021;-63
2023/01/30 10:04:55;;;;;;;10.57;2.20;;;;;;;;;;6146818;23;20466;-63
2023/01/30 10:07:36;;;;;;;16.17;2.65;;;;;;;;;;6146644;23;20033;-63
2023/01/30 10:10:09;;;;;;;18.70;2.90;;;;;;;;;;6147282;23;20025;-63
2023/01/30 10:12:58;;;;;;;20.27;2.42;;;;;;;;;;6148570;23;20029;-64
2023/01/30 10:15:34;;;;;;;16.13;2.33;;;;;;;;;;6147325;23;20027;-63
2023/01/30 10:18:14;;;;;;;15.32;2.90;;;;;;;;;;6146969;23;20029;-63
2023/01/30 10:20:49;;;;;;;12.93;2.03;;;;;;;;;;6147310;23;20045;-63
2023/01/30 10:23:43;;;;;;;12.05;2.63;;;;;;;;;;6147817;23;20036;-62
2023/01/30 10:26:28;;;;;;;15.43;2.70;;;;;;;;;;6146022;23;20428;-63
2023/01/30 10:29:05;;;;;;;14.13;2.55;;;;;;;;;;6147471;23;20029;-63
2023/01/30 10:31:39;;;;;;;15.75;2.90;;;;;;;;;;6147068;23;20486;-63
2023/01/30 10:34:20;;;;;;;14.00;2.08;;;;;;;;;;6145898;23;20109;-61
2023/01/30 10:36:47;;;;;;;13.27;2.13;;;;;;;;;;6146422;23;20325;-61
2023/01/30 10:39:36;;;;;;;13.50;1.98;;;;;;;;;;6147913;23;20029;-61
2023/01/30 10:42:24;;;;;;;17.05;2.00;;;;;;;;;;6147777;23;20029;-61
2023/01/30 10:45:05;;;;;;;13.82;2.70;;;;;;;;;;6148751;23;20330;-62
2023/01/30 10:47:39;;;;;;;15.05;1.85;;;;;;;;;;6147979;23;20485;-61
2023/01/30 10:50:14;;;;;;;13.57;1.80;;;;;;;;;;6149486;23;20529;-61
2023/01/30 10:53:00;;;;;;;12.57;2.00;;;;;;;;;;6148121;23;20049;-61
2023/01/30 10:55:37;;;;;;;10.23;1.83;;;;;;;;;;6148974;23;20100;-61
2023/01/30 10:58:22;;;;;;;11.48;1.90;;;;;;;;;;6149722;23;20026;-61
2023/01/30 11:01:16;;;;;;;8.65;2.20;;;;;;;;;;6148810;23;20056;-61
2023/01/30 11:03:47;;;;;;;11.05;2.15;;;;;;;;;;6148279;23;20032;-61
2023/01/30 11:06:30;;;;;;;13.73;2.83;;;;;;;;;;6148383;23;20069;-62
2023/01/30 11:09:04;;;;;;;10.70;2.22;;;;;;;;;;6148255;23;20064;-62
2023/01/30 11:11:49;;;;;;;10.50;2.20;;;;;;;;;;6149662;23;20398;-64
2023/01/30 11:14:16;;;;;;;17.63;2.78;;;;;;;;;;6148248;23;20029;-63
2023/01/30 11:16:50;;;;;;;11.15;2.38;;;;;;;;;;6147173;23;20474;-64
2023/01/30 11:19:19;;;;;;;16.30;2.60;;;;;;;;;;6149347;23;20059;-63
2023/01/30 11:21:55;;;;;;;12.98;2.40;;;;;;;;;;6149086;23;20100;-63
2023/01/30 11:24:23;;;;;;;18.48;2.65;;;;;;;;;;6148886;23;20101;-63
2023/01/30 11:26:52;;;;;;;14.75;2.92;;;;;;;;;;6147877;23;20105;-63
2023/01/30 11:29:30;;;;;;;10.85;2.58;;;;;;;;;;6149455;23;20025;-63
2023/01/30 11:32:01;;;;;;;9.13;1.88;;;;;;;;;;6147207;23;20394;-63
2023/01/30 11:34:35;;;;;;;14.15;3.45;;;;;;;;;;6148493;23;20030;-61
2023/01/30 11:37:21;;;;;;;9.45;2.08;;;;;;;;;;6148839;23;20054;-63
2023/01/30 11:39:55;;;;;;;10.52;2.15;;;;;;;;;;6147811;23;20025;-62
2023/01/30 11:42:25;;;;;;;10.82;1.98;;;;;;;;;;6149515;23;20026;-61
2023/01/30 11:44:59;;;;;;;11.77;2.13;;;;;;;;;;6147747;23;20025;-61
2023/01/30 11:47:49;;;;;;;11.20;1.52;;;;;;;;;;6148131;23;20026;-61
2023/01/30 11:50:34;;;;;;;6.13;1.60;;;;;;;;;;6149068;23;20468;-61
2023/01/30 11:53:13;;;;;;;10.45;1.92;;;;;;;;;;6148105;23;20112;-62
2023/01/30 11:55:47;;;;;;;14.00;1.90;;;;;;;;;;6148172;23;20053;-61
2023/01/30 11:58:30;;;;;;;7.63;1.80;;;;;;;;;;6148687;23;20056;-61
2023/01/30 12:01:05;;;;;;;11.50;1.55;;;;;;;;;;6146899;23;20485;-62
2023/01/30 12:03:33;;;;;;;10.25;1.48;;;;;;;;;;6149941;23;20092;-61
2023/01/30 12:06:13;;;;;;;5.90;1.25;;;;;;;;;;6146604;23;20031;-61
2023/01/30 12:08:50;;;;;;;4.65;1.35;;;;;;;;;;6118126;23;20021;-61
2023/01/30 12:11:26;;;;;;;6.70;1.30;;;;;;;;;;6118451;23;20029;-61
2023/01/30 12:13:56;;;;;;;3.40;1.10;;;;;;;;;;6118412;23;20403;-61
2023/01/30 12:16:49;;;;;;;7.95;1.30;;;;;;;;;;6117012;23;20920;-61
2023/01/30 12:19:30;;;;;;;9.23;1.50;;;;;;;;;;6118390;23;20098;-61
2023/01/30 12:22:20;;;;;;;9.20;1.73;;;;;;;;;;6120305;23;20022;-61
2023/01/30 12:24:51;;;;;;;6.53;1.35;;;;;;;;;;6092153;23;20028;-62
2023/01/30 12:27:29;;;;;;;10.10;1.90;;;;;;;;;;6118681;23;20036;-61
2023/01/30 12:29:59;;;;;;;7.32;1.30;;;;;;;;;;6117782;23;20028;-61
2023/01/30 12:32:34;;;;;;;10.37;1.67;;;;;;;;;;6119067;23;20024;-61
2023/01/30 12:35:01;;;;;;;;;;;;;;;;;;6119002;23;20107;-61
2023/01/30 12:38:00;;;;;;;5.88;1.00;;;;;;;;;;6118489;23;20385;-61
2023/01/30 12:40:34;;;;;;;3.92;1.10;;;;;;;;;;6092675;23;20025;-61
2023/01/30 12:43:15;;;;;;;7.13;1.63;;;;;;;;;;6118738;23;20041;-61
2023/01/30 12:45:51;;;;;;;7.53;1.50;;;;;;;;;;6118478;23;20026;-61
2023/01/30 12:48:39;;;;;;;6.45;1.15;;;;;;;;;;6118838;23;20077;-61
2023/01/30 12:51:23;;;;;;;6.50;1.30;;;;;;;;;;6116509;23;20108;-61
2023/01/30 12:54:17;;;;;;;6.07;1.05;;;;;;;;;;6118838;23;20136;-61
2023/01/30 12:56:46;;;;;;;4.03;1.20;;;;;;;;;;6119011;23;20018;-61
2023/01/30 12:59:21;;;;;;;4.20;0.80;;;;;;;;;;6117875;23;20022;-61
2023/01/30 13:02:01;;;;;;;4.60;1.20;;;;;;;;;;6117465;23;20022;-62
2023/01/30 13:04:41;;;;;;;4.45;1.13;;;;;;;;;;6118152;23;20021;-61
2023/01/30 13:07:48;;;;;;;6.03;1.75;;;;;;;;;;6131831;23;20026;-61
2023/01/30 13:10:48;;;;;;;8.25;1.10;;;;;;;;;;6134602;23;20053;-62
2023/01/30 13:13:24;;;;;;;7.35;1.00;;;;;;;;;;6148765;23;20082;-61
2023/01/30 13:16:05;;;;;;;5.55;1.05;;;;;;;;;;6147421;23;20035;-61
2023/01/30 13:18:55;;;;;;;5.13;1.00;;;;;;;;;;6147698;23;20021;-61
2023/01/30 13:21:46;;;;;;;4.93;1.17;;;;;;;;;;6145907;23;20032;-61
2023/01/30 13:24:38;;;;;;;6.45;1.52;;;;;;;;;;6147993;23;20108;-61
2023/01/30 13:27:12;;;;;;;;;;;;;;;;;;6148156;23;20092;-61
2023/01/30 13:29:40;;;;;;;2.75;1.00;;;;;;;;;;6147426;23;20340;-61
2023/01/30 13:32:14;;;;;;;3.72;0.95;;;;;;;;;;6121716;23;20100;-61
2023/01/30 13:34:48;;;;;;;6.53;1.52;;;;;;;;;;6146665;23;20072;-61
2023/01/30 13:37:15;;;;;;;;;;;;;;;;;;6147854;23;20029;-61
2023/01/30 13:39:51;;;;;;;2.33;0.90;;;;;;;;;;6147626;23;19999;-61
2023/01/30 13:42:27;;;;;;;3.38;0.93;;;;;;;;;;6148266;23;20368;-61
2023/01/30 13:45:04;;;;;;;5.72;1.05;;;;;;;;;;6145975;23;20025;-61
2023/01/30 13:47:34;;;;;;;4.60;1.60;;;;;;;;;;6148034;23;20077;-61
2023/01/30 13:50:20;;;;;;;5.65;1.00;;;;;;;;;;6147364;23;20018;-61
2023/01/30 13:52:54;;;;;;;6.30;0.85;;;;;;;;;;6146892;23;20052;-61
2023/01/30 13:55:39;;;;;;;5.68;0.90;;;;;;;;;;6147240;23;20097;-61
2023/01/30 13:58:16;;;;;;;6.32;1.13;;;;;;;;;;6148417;23;20096;-62
2023/01/30 14:00:53;;;;;;;3.53;0.90;;;;;;;;;;6146942;23;20025;-61
2023/01/30 14:03:47;;;;;;;4.47;0.93;;;;;;;;;;6147960;23;20021;-61
2023/01/30 14:06:42;;;;;;;5.32;1.30;;;;;;;;;;6146246;23;20440;-61
2023/01/30 14:09:18;;;;;;;3.63;0.80;;;;;;;;;;6118409;23;20427;-61
2023/01/30 14:11:57;;;;;;;7.00;1.17;;;;;;;;;;6117600;23;20049;-61
2023/01/30 14:14:32;;;;;;;6.82;2.03;;;;;;;;;;6117818;23;20018;-62
2023/01/30 14:17:13;;;;;;;5.47;1.17;;;;;;;;;;6116417;23;20630;-61
2023/01/30 14:19:58;;;;;;;3.33;1.10;;;;;;;;;;6119542;23;20474;-61
2023/01/30 14:22:28;;;;;;;4.68;1.42;;;;;;;;;;6120094;23;20061;-61
2023/01/30 14:25:20;;;;;;;2.83;1.00;;;;;;;;;;6120316;23;20030;-61
2023/01/30 14:27:54;;;;;;;2.95;0.77;;;;;;;;;;6119762;23;20428;-61
2023/01/30 14:30:31;;;;;;;4.10;1.13;;;;;;;;;;6118202;23;20403;-61
2023/01/30 14:32:59;;;;;;;1.52;0.98;;;;;;;;;;6119110;23;20034;-61
2023/01/30 14:35:33;;;;;;;5.78;1.80;;;;;;;;;;6119347;23;20049;-61
2023/01/30 14:38:00;;;;;;;;;;;;;;;;;;6118744;23;20083;-62
2023/01/30 14:40:29;;;;;;;7.05;1.45;;;;;;;;;;6120192;23;20331;-61
2023/01/30 14:43:13;;;;;;;2.22;0.98;;;;;;;;;;6095368;23;20109;-61
2023/01/30 14:45:47;;;;;;;5.38;1.25;;;;;;;;;;6118159;23;20396;-61
2023/01/30 14:48:27;;;;;;;4.82;1.17;;;;;;;;;;6118974;23;20022;-61
2023/01/30 14:51:13;;;;;;;3.35;1.10;;;;;;;;;;6118717;23;20022;-61
2023/01/30 14:53:59;;;;;;;5.03;1.23;;;;;;;;;;6119774;23;20033;-61
2023/01/30 14:56:53;;;;;;;5.30;1.35;;;;;;;;;;6117760;23;20068;-61
2023/01/30 14:59:28;;;;;;;3.42;0.98;;;;;;;;;;6119569;23;20065;-61
2023/01/30 15:02:11;;;;;;;6.43;1.10;;;;;;;;;;6118602;23;20058;-61
2023/01/30 15:04:54;;;;;;;9.32;1.40;;;;;;;;;;6119295;23;20038;-61
2023/01/30 15:07:40;;;;;;;5.15;1.63;;;;;;;;;;6107405;23;20108;-63
2023/01/30 15:10:30;;;;;;;4.13;1.20;;;;;;;;;;6149806;23;20052;-63
2023/01/30 15:13:22;;;;;;;5.50;1.38;;;;;;;;;;6149762;23;20101;-63
2023/01/30 15:16:08;;;;;;;6.07;1.25;;;;;;;;;;6147449;23;20061;-63
2023/01/30 15:19:02;;;;;;;5.97;1.27;;;;;;;;;;6148550;23;20036;-63
2023/01/30 15:21:47;;;;;;;6.32;1.40;;;;;;;;;;6146974;23;20452;-63
2023/01/30 15:24:44;;;;;;;5.57;1.30;;;;;;;;;;6149926;23;20100;-63
2023/01/30 15:27:11;;;;;;;6.63;1.30;;;;;;;;;;6149407;23;20025;-63